createdAt,value
2022-09-12T00:01:17.001Z,11.22
2022-09-12T00:03:44.343Z,11.21
2022-09-12T00:06:20.432Z,11.26
2022-09-12T00:08:49.249Z,11.31
2022-09-12T00:11:16.139Z,11.35
2022-09-12T00:13:43.707Z,11.41
2022-09-12T00:16:25.386Z,11.46
2022-09-12T00:18:53.863Z,11.52
2022-09-12T00:21:22.147Z,11.52
2022-09-12T00:23:52.480Z,11.54
2022-09-12T00:26:20.621Z,11.58
2022-09-12T00:28:47.541Z,11.60
2022-09-12T00:31:21.980Z,11.61
2022-09-12T00:33:48.695Z,11.58
2022-09-12T00:36:18.462Z,11.57
2022-09-12T00:38:46.398Z,11.51
2022-09-12T00:41:26.495Z,11.49
2022-09-12T00:43:55.609Z,11.47
2022-09-12T00:46:25.267Z,11.45
2022-09-12T00:49:04.520Z,11.42
2022-09-12T00:51:33.980Z,11.39
2022-09-12T00:54:06.723Z,11.37
2022-09-12T00:56:33.449Z,11.31
2022-09-12T00:59:15.117Z,11.24
2022-09-12T01:01:45.192Z,11.19
2022-09-12T01:04:13.011Z,11.15
2022-09-12T01:06:43.238Z,11.13
2022-09-12T01:09:15.661Z,11.09
2022-09-12T01:11:46.247Z,11.07
2022-09-12T01:14:15.589Z,11.04
2022-09-12T01:16:42.972Z,10.99
2022-09-12T01:19:25.045Z,10.93
2022-09-12T01:22:04.539Z,10.88
2022-09-12T01:24:31.325Z,10.85
2022-09-12T01:27:35.461Z,10.83
2022-09-12T01:30:23.985Z,10.83
2022-09-12T01:33:09.849Z,10.83
2022-09-12T01:36:11.546Z,10.83
2022-09-12T01:38:47.953Z,10.85
2022-09-12T01:41:41.389Z,10.84
2022-09-12T01:44:15.252Z,10.85
2022-09-12T01:47:02.935Z,10.84
2022-09-12T01:49:40.207Z,10.82
2022-09-12T01:52:33.178Z,10.78
2022-09-12T01:55:34.905Z,10.78
2022-09-12T01:58:36.513Z,10.75
2022-09-12T02:01:10.201Z,10.76
2022-09-12T02:03:47.425Z,10.74
2022-09-12T02:06:22.729Z,10.72
2022-09-12T02:09:01.721Z,10.70
2022-09-12T02:11:31.514Z,10.73
2022-09-12T02:14:01.843Z,10.69
2022-09-12T02:16:36.711Z,10.69
2022-09-12T02:19:09.993Z,10.69
2022-09-12T02:21:44.019Z,10.70
2022-09-12T02:24:14.755Z,10.72
2022-09-12T02:26:55.133Z,10.73
2022-09-12T02:29:21.815Z,10.77
2022-09-12T02:31:54.327Z,10.80
2022-09-12T02:34:49.891Z,10.86
2022-09-12T02:37:38.649Z,10.89
2022-09-12T02:40:07.206Z,10.88
2022-09-12T02:42:33.910Z,10.87
2022-09-12T02:45:00.682Z,10.87
2022-09-12T02:47:39.011Z,10.85
2022-09-12T02:50:08.255Z,10.85
2022-09-12T02:52:36.225Z,10.84
2022-09-12T02:55:05.380Z,10.80
2022-09-12T02:57:32.175Z,10.78
2022-09-12T03:00:01.978Z,10.73
2022-09-12T03:02:37.115Z,10.70
2022-09-12T03:05:31.740Z,10.70
2022-09-12T03:08:13.401Z,10.66
2022-09-12T03:11:10.509Z,10.61
2022-09-12T03:14:00.306Z,10.58
2022-09-12T03:16:32.723Z,10.54
2022-09-12T03:19:09.208Z,10.54
2022-09-12T03:21:55.251Z,10.52
2022-09-12T03:24:38.207Z,10.50
2022-09-12T03:27:20.298Z,10.45
2022-09-12T03:29:48.916Z,10.42
2022-09-12T03:32:15.924Z,10.41
2022-09-12T03:34:42.640Z,10.39
2022-09-12T03:37:09.248Z,10.39
2022-09-12T03:39:36.037Z,10.37
2022-09-12T03:42:02.657Z,10.36
2022-09-12T03:44:32.121Z,10.31
2022-09-12T03:47:00.314Z,10.27
2022-09-12T03:49:26.929Z,10.27
2022-09-12T03:51:53.879Z,10.28
2022-09-12T03:54:20.482Z,10.26
2022-09-12T03:56:47.177Z,10.26
2022-09-12T03:59:13.777Z,10.24
2022-09-12T04:01:42.044Z,10.25
2022-09-12T04:04:08.993Z,10.27
2022-09-12T04:06:35.699Z,10.27
2022-09-12T04:09:02.444Z,10.26
2022-09-12T04:11:29.079Z,10.23
2022-09-12T04:13:55.730Z,10.19
2022-09-12T04:16:22.620Z,10.12
2022-09-12T04:18:49.285Z,10.09
2022-09-12T04:21:18.666Z,10.09
2022-09-12T04:23:45.361Z,10.09
2022-09-12T04:26:13.921Z,10.12
2022-09-12T04:28:41.563Z,10.18
2022-09-12T04:31:12.615Z,10.23
2022-09-12T04:33:39.902Z,10.27
2022-09-12T04:36:09.788Z,10.30
2022-09-12T04:38:36.881Z,10.35
2022-09-12T04:41:31.116Z,10.37
2022-09-12T04:44:03.700Z,10.38
2022-09-12T04:46:39.347Z,10.43
2022-09-12T04:49:06.811Z,10.47
2022-09-12T04:51:36.061Z,10.50
2022-09-12T04:54:09.123Z,10.52
2022-09-12T04:56:43.136Z,10.56
2022-09-12T04:59:11.984Z,10.61
2022-09-12T05:01:39.398Z,10.63
2022-09-12T05:04:06.691Z,10.63
2022-09-12T05:06:35.955Z,10.63
2022-09-12T05:09:05.378Z,10.64
2022-09-12T05:12:02.153Z,10.66
2022-09-12T05:14:21.388Z,10.72
2022-09-12T05:16:49.683Z,10.77
2022-09-12T05:19:17.300Z,10.83
2022-09-12T05:21:43.928Z,10.89
2022-09-12T05:24:11.710Z,10.92
2022-09-12T05:26:38.837Z,10.96
2022-09-12T05:29:07.235Z,10.99
2022-09-12T05:31:35.066Z,11.04
2022-09-12T05:34:06.356Z,10.99
2022-09-12T05:36:33.386Z,10.98
2022-09-12T05:39:00.877Z,11.03
2022-09-12T05:41:30.965Z,11.09
2022-09-12T05:43:59.554Z,11.15
2022-09-12T05:46:36.675Z,11.25
2022-09-12T05:49:05.617Z,11.35
2022-09-12T05:51:35.266Z,11.42
2022-09-12T05:54:06.038Z,11.48
2022-09-12T05:56:34.829Z,11.52
2022-09-12T05:59:03.830Z,11.63
2022-09-12T06:01:32.300Z,11.69
2022-09-12T06:04:01.031Z,11.75
2022-09-12T06:06:29.608Z,11.84
2022-09-12T06:08:59.493Z,11.95
2022-09-12T06:11:27.179Z,12.01
2022-09-12T06:13:53.890Z,12.03
2022-09-12T06:16:26.328Z,12.05
2022-09-12T06:18:56.666Z,12.14
2022-09-12T06:21:24.798Z,12.23
2022-09-12T06:23:55.494Z,12.32
2022-09-12T06:26:25.836Z,12.43
2022-09-12T06:34:16.639Z,12.72
2022-09-12T06:36:46.611Z,12.80
2022-09-12T06:39:16.369Z,12.90
2022-09-12T06:41:44.261Z,12.92
2022-09-12T06:44:14.912Z,12.91
2022-09-12T06:46:42.087Z,12.90
2022-09-12T06:49:09.548Z,12.89
2022-09-12T06:51:36.470Z,12.83
2022-09-12T06:54:03.818Z,12.79
2022-09-12T06:56:30.559Z,12.81
2022-09-12T06:58:59.440Z,12.92
2022-09-12T07:01:28.947Z,13.07
2022-09-12T07:03:59.446Z,13.25
2022-09-12T07:06:31.889Z,13.45
2022-09-12T07:08:59.897Z,13.60
2022-09-12T07:11:31.745Z,13.68
2022-09-12T07:14:00.670Z,13.74
2022-09-12T07:16:28.189Z,13.73
2022-09-12T07:19:00.242Z,13.66
2022-09-12T07:21:27.491Z,13.64
2022-09-12T07:23:57.320Z,13.75
2022-09-12T07:26:25.276Z,13.87
2022-09-12T07:29:07.821Z,13.98
2022-09-12T07:31:43.138Z,14.14
2022-09-12T07:34:09.954Z,14.22
2022-09-12T07:36:37.314Z,14.32
2022-09-12T07:39:04.163Z,14.45
2022-09-12T07:41:34.056Z,14.73
2022-09-12T07:44:02.335Z,15.08
2022-09-12T07:46:30.392Z,15.41
2022-09-12T07:48:59.038Z,15.72
2022-09-12T07:51:27.295Z,16.23
2022-09-12T07:53:54.424Z,16.92
2022-09-12T07:56:24.061Z,17.64
2022-09-12T07:58:53.089Z,18.48
2022-09-12T08:01:24.907Z,18.95
2022-09-12T08:03:59.452Z,19.18
2022-09-12T08:06:27.735Z,19.29
2022-09-12T08:08:56.604Z,19.26
2022-09-12T08:11:24.991Z,19.03
2022-09-12T08:13:55.852Z,18.79
2022-09-12T08:16:25.206Z,18.49
2022-09-12T08:18:51.838Z,18.28
2022-09-12T08:21:21.554Z,18.46
2022-09-12T08:23:51.720Z,19.06
2022-09-12T08:26:18.598Z,20.02
2022-09-12T08:28:46.003Z,21.21
2022-09-12T08:31:15.345Z,22.51
2022-09-12T08:33:42.641Z,23.81
2022-09-12T08:36:15.081Z,24.73
2022-09-12T08:38:44.559Z,25.84
2022-09-12T08:41:41.758Z,26.85
2022-09-12T08:44:26.896Z,28.01
2022-09-12T08:47:08.648Z,28.89
2022-09-12T08:49:42.251Z,28.65
2022-09-12T08:52:17.432Z,27.98
2022-09-12T08:54:45.606Z,27.86
2022-09-12T08:57:15.264Z,28.22
2022-09-12T08:59:44.928Z,28.97
2022-09-12T09:02:38.879Z,29.79
2022-09-12T09:05:34.357Z,30.64
2022-09-12T09:08:19.525Z,31.28
2022-09-12T09:10:53.093Z,31.47
2022-09-12T09:13:59.222Z,30.82
2022-09-12T09:16:32.431Z,29.34
2022-09-12T09:19:04.478Z,28.11
2022-09-12T09:21:52.617Z,27.40
2022-09-12T09:24:26.653Z,27.55
2022-09-12T09:26:56.650Z,28.08
2022-09-12T09:29:45.688Z,28.54
2022-09-12T09:32:18.618Z,28.57
2022-09-12T09:34:46.181Z,29.16
2022-09-12T09:37:20.278Z,29.46
2022-09-12T09:39:50.154Z,28.92
2022-09-12T09:42:22.889Z,28.48
2022-09-12T09:44:53.627Z,28.66
2022-09-12T09:47:20.445Z,28.26
2022-09-12T09:49:47.663Z,28.27
2022-09-12T09:52:17.577Z,28.54
2022-09-12T09:54:53.484Z,28.80
2022-09-12T09:57:35.192Z,29.12
2022-09-12T10:00:21.928Z,28.37
2022-09-12T10:03:32.907Z,28.10
2022-09-12T10:06:41.202Z,28.65
2022-09-12T10:09:27.659Z,29.74
2022-09-12T10:11:56.754Z,30.51
2022-09-12T10:14:37.451Z,30.95
2022-09-12T10:17:22.549Z,31.79
2022-09-12T10:20:04.489Z,32.50
2022-09-12T10:22:35.960Z,33.33
2022-09-12T10:25:04.062Z,33.74
2022-09-12T10:27:32.997Z,34.01
2022-09-12T10:30:14.605Z,34.12
2022-09-12T10:32:53.330Z,34.43
2022-09-12T10:35:28.557Z,35.05
2022-09-12T10:38:02.675Z,34.92
2022-09-12T10:40:36.948Z,34.85
2022-09-12T10:43:17.245Z,34.88
2022-09-12T10:45:43.957Z,34.48
2022-09-12T10:48:29.486Z,34.36
2022-09-12T10:50:57.273Z,34.79
2022-09-12T10:53:34.201Z,34.99
2022-09-12T10:56:22.490Z,35.50
2022-09-12T10:59:16.896Z,35.83
2022-09-12T11:02:00.830Z,35.19
2022-09-12T11:04:58.107Z,34.72
2022-09-12T11:07:36.603Z,35.13
2022-09-12T11:10:44.619Z,35.17
2022-09-12T11:13:26.247Z,35.56
2022-09-12T11:16:05.267Z,35.67
2022-09-12T11:18:55.619Z,35.66
2022-09-12T11:21:50.919Z,36.21
2022-09-12T11:24:37.306Z,37.02
2022-09-12T11:27:38.857Z,37.02
2022-09-12T11:30:11.100Z,36.84
2022-09-12T11:32:47.582Z,37.21
2022-09-12T11:35:20.158Z,37.46
2022-09-12T11:38:08.409Z,37.62
2022-09-12T11:40:44.721Z,37.79
2022-09-12T11:43:38.535Z,37.89
2022-09-12T11:46:32.559Z,37.99
2022-09-12T11:49:35.734Z,38.17
2022-09-12T11:52:18.967Z,37.78
2022-09-12T11:54:59.671Z,37.75
2022-09-12T11:57:44.358Z,37.83
2022-09-12T12:00:36.996Z,38.18
2022-09-12T12:03:27.292Z,38.58
2022-09-12T12:06:07.103Z,38.28
2022-09-12T12:08:40.768Z,37.42
2022-09-12T12:11:08.892Z,37.20
2022-09-12T12:14:00.278Z,35.97
2022-09-12T12:16:33.851Z,34.42
2022-09-12T12:19:06.481Z,33.20
2022-09-12T12:21:48.328Z,32.60
2022-09-12T12:24:19.994Z,32.49
2022-09-12T12:27:23.487Z,32.83
2022-09-12T12:29:50.337Z,32.15
2022-09-12T12:32:17.654Z,31.23
2022-09-12T12:34:46.607Z,30.96
2022-09-12T12:37:19.056Z,31.34
2022-09-12T12:39:55.698Z,32.00
2022-09-12T12:42:38.046Z,32.42
2022-09-12T12:45:18.235Z,31.96
2022-09-12T12:47:50.049Z,31.32
2022-09-12T12:50:16.612Z,31.26
2022-09-12T12:52:59.893Z,32.00
2022-09-12T12:55:33.374Z,32.68
2022-09-12T12:58:02.086Z,33.12
2022-09-12T13:00:32.239Z,33.45
2022-09-12T13:03:06.695Z,34.23
2022-09-12T13:05:45.482Z,34.53
2022-09-12T13:08:30.358Z,35.11
2022-09-12T13:11:14.466Z,35.05
2022-09-12T13:14:05.013Z,33.88
2022-09-12T13:16:40.773Z,32.54
2022-09-12T13:19:18.189Z,31.19
2022-09-12T13:22:05.739Z,29.85
2022-09-12T13:24:33.137Z,29.67
2022-09-12T13:27:00.074Z,30.04
2022-09-12T13:29:28.064Z,29.84
2022-09-12T13:32:04.575Z,29.17
2022-09-12T13:34:35.443Z,29.04
2022-09-12T13:37:16.084Z,29.03
2022-09-12T13:39:57.623Z,28.55
2022-09-12T13:42:46.196Z,27.70
2022-09-12T13:45:23.031Z,26.96
2022-09-12T13:48:16.890Z,26.19
2022-09-12T13:50:58.281Z,25.54
2022-09-12T13:53:31.269Z,25.09
2022-09-12T13:56:01.847Z,24.62
2022-09-12T13:58:34.578Z,24.24
2022-09-12T14:01:41.447Z,23.76
2022-09-12T14:04:39.442Z,23.27
2022-09-12T14:07:20.585Z,22.92
2022-09-12T14:09:57.308Z,22.74
2022-09-12T14:12:43.636Z,22.59
2022-09-12T14:15:20.020Z,22.44
2022-09-12T14:17:52.810Z,22.21
2022-09-12T14:20:23.296Z,22.00
2022-09-12T14:22:52.159Z,21.77
2022-09-12T14:25:25.661Z,21.46
2022-09-12T14:27:55.108Z,21.12
2022-09-12T14:30:23.931Z,20.78
2022-09-12T14:33:05.676Z,20.48
2022-09-12T14:35:39.217Z,20.25
2022-09-12T14:38:15.331Z,19.97
2022-09-12T14:40:45.058Z,19.80
2022-09-12T14:43:26.741Z,19.65
2022-09-12T14:46:06.329Z,19.47
2022-09-12T14:48:43.192Z,19.32
2022-09-12T14:51:21.428Z,19.28
2022-09-12T14:53:49.500Z,19.23
2022-09-12T14:56:16.679Z,19.23
2022-09-12T14:58:43.376Z,19.18
2022-09-12T15:01:12.798Z,19.14
2022-09-12T15:03:44.937Z,19.06
2022-09-12T15:06:38.334Z,18.97
2022-09-12T15:09:09.181Z,18.90
2022-09-12T15:11:36.439Z,18.86
2022-09-12T15:14:15.669Z,18.87
2022-09-12T15:16:42.894Z,18.85
2022-09-12T15:19:09.814Z,18.74
2022-09-12T15:21:36.523Z,18.61
2022-09-12T15:24:03.414Z,18.56
2022-09-12T15:26:31.731Z,18.55
2022-09-12T15:28:58.510Z,18.48
2022-09-12T15:31:30.334Z,18.41
2022-09-12T15:33:59.387Z,18.44
2022-09-12T15:36:27.515Z,18.44
2022-09-12T15:38:54.328Z,18.37
2022-09-12T15:41:24.758Z,18.29
2022-09-12T15:43:51.754Z,18.25
2022-09-12T15:46:19.356Z,18.21
2022-09-12T15:48:46.209Z,18.17
2022-09-12T15:51:15.909Z,18.13
2022-09-12T15:53:45.967Z,18.08
2022-09-12T15:56:13.090Z,18.00
2022-09-12T15:58:54.723Z,17.97
2022-09-12T16:01:24.434Z,17.90
2022-09-12T16:03:51.187Z,17.78
2022-09-12T16:06:18.145Z,17.64
2022-09-12T16:08:45.046Z,17.50
2022-09-12T16:11:20.993Z,17.35
2022-09-12T16:13:47.773Z,17.20
2022-09-12T16:16:14.472Z,17.10
2022-09-12T16:18:42.013Z,17.01
2022-09-12T16:21:14.068Z,16.91
2022-09-12T16:23:45.511Z,16.79
2022-09-12T16:26:12.335Z,16.69
2022-09-12T16:28:39.355Z,16.59
2022-09-12T16:31:08.593Z,16.46
2022-09-12T16:33:35.833Z,16.38
2022-09-12T16:36:13.883Z,16.28
2022-09-12T16:38:49.419Z,16.13
2022-09-12T16:41:17.406Z,16.04
2022-09-12T16:43:44.814Z,15.96
2022-09-12T16:46:24.126Z,15.88
2022-09-12T16:48:56.256Z,15.81
2022-09-12T16:51:26.218Z,15.75
2022-09-12T16:53:53.894Z,15.69
2022-09-12T16:56:20.984Z,15.64
2022-09-12T16:58:49.823Z,15.58
2022-09-12T17:01:20.344Z,15.50
2022-09-12T17:03:47.690Z,15.48
2022-09-12T17:06:17.125Z,15.46
2022-09-12T17:08:46.595Z,15.43
2022-09-12T17:11:16.296Z,15.39
2022-09-12T17:14:03.938Z,15.34
2022-09-12T17:16:32.965Z,15.26
2022-09-12T17:18:59.721Z,15.22
2022-09-12T17:21:26.390Z,15.16
2022-09-12T17:23:53.178Z,15.12
2022-09-12T17:26:21.050Z,15.08
2022-09-12T17:28:48.581Z,15.06
2022-09-12T17:31:16.182Z,14.99
2022-09-12T17:33:43.614Z,14.96
2022-09-12T17:36:15.097Z,14.92
2022-09-12T17:38:44.344Z,14.92
2022-09-12T17:41:21.321Z,14.90
2022-09-12T17:43:50.917Z,14.87
2022-09-12T17:46:19.400Z,14.87
2022-09-12T17:48:52.038Z,14.84
2022-09-12T17:51:18.832Z,14.84
2022-09-12T17:53:45.727Z,14.86
2022-09-12T17:56:12.623Z,14.83
2022-09-12T17:58:39.411Z,14.81
2022-09-12T18:01:28.985Z,14.77
2022-09-12T18:03:57.197Z,14.71
2022-09-12T18:06:24.869Z,14.67
2022-09-12T18:08:51.986Z,14.64
2022-09-12T18:11:18.972Z,14.57
2022-09-12T18:13:45.810Z,14.50
2022-09-12T18:16:13.702Z,14.40
2022-09-12T18:18:40.873Z,14.36
2022-09-12T18:21:10.402Z,14.34
2022-09-12T18:23:37.431Z,14.31
2022-09-12T18:26:07.102Z,14.26
2022-09-12T18:28:39.072Z,14.20
2022-09-12T18:31:14.295Z,14.10
2022-09-12T18:33:41.711Z,14.01
2022-09-12T18:36:11.112Z,13.93
2022-09-12T18:38:38.865Z,13.81
2022-09-12T18:41:17.488Z,13.72
2022-09-12T18:43:44.679Z,13.66
2022-09-12T18:46:17.073Z,13.60
2022-09-12T18:48:45.577Z,13.53
2022-09-12T18:51:20.975Z,13.48
2022-09-12T18:53:56.525Z,13.39
2022-09-12T18:56:27.063Z,13.33
2022-09-12T18:58:56.842Z,13.27
2022-09-12T19:01:31.471Z,13.21
2022-09-12T19:03:59.884Z,13.10
2022-09-12T19:06:32.382Z,13.04
2022-09-12T19:09:03.886Z,13.01
2022-09-12T19:11:33.953Z,12.94
2022-09-12T19:14:01.362Z,12.90
2022-09-12T19:16:29.146Z,12.85
2022-09-12T19:18:57.298Z,12.78
2022-09-12T19:21:31.174Z,12.73
2022-09-12T19:24:05.479Z,12.72
2022-09-12T19:26:34.522Z,12.69
2022-09-12T19:29:03.506Z,12.63
2022-09-12T19:31:31.812Z,12.61
2022-09-12T19:34:03.633Z,12.60
2022-09-12T19:36:48.106Z,12.58
2022-09-12T19:39:17.290Z,12.51
2022-09-12T19:41:44.596Z,12.49
2022-09-12T19:44:11.753Z,12.43
2022-09-12T19:46:38.804Z,12.38
2022-09-12T19:49:07.350Z,12.36
2022-09-12T19:51:34.278Z,12.36
2022-09-12T19:54:01.075Z,12.36
2022-09-12T19:56:27.714Z,12.35
2022-09-12T19:58:56.823Z,12.39
2022-09-12T20:01:28.446Z,12.42
2022-09-12T20:03:56.790Z,12.43
2022-09-12T20:06:25.863Z,12.45
2022-09-12T20:08:53.037Z,12.44
2022-09-12T20:11:21.906Z,12.43
2022-09-12T20:13:48.592Z,12.42
2022-09-12T20:16:25.728Z,12.37
2022-09-12T20:19:02.003Z,12.26
2022-09-12T20:21:35.901Z,12.20
2022-09-12T20:24:06.882Z,12.11
2022-09-12T20:26:33.573Z,12.07
2022-09-12T20:29:00.892Z,12.03
2022-09-12T20:31:27.876Z,12.01
2022-09-12T20:33:55.098Z,11.97
2022-09-12T20:36:22.358Z,11.97
2022-09-12T20:38:56.900Z,11.92
2022-09-12T20:41:27.539Z,11.82
2022-09-12T20:43:56.055Z,11.72
2022-09-12T20:46:24.875Z,11.71
2022-09-12T20:48:51.902Z,11.75
2022-09-12T20:51:19.794Z,11.76
2022-09-12T20:53:47.082Z,11.76
2022-09-12T20:56:15.431Z,11.73
2022-09-12T20:58:44.491Z,11.71
2022-09-12T21:01:13.777Z,11.65
2022-09-12T21:03:41.620Z,11.62
2022-09-12T21:06:09.793Z,11.60
2022-09-12T21:08:37.242Z,11.68
2022-09-12T21:11:04.499Z,11.78
2022-09-12T21:13:31.710Z,11.84
2022-09-12T21:16:07.487Z,11.85
2022-09-12T21:18:35.739Z,11.87
2022-09-12T21:21:03.451Z,11.97
2022-09-12T21:23:30.525Z,12.02
2022-09-12T21:26:00.389Z,12.07
2022-09-12T21:28:27.285Z,12.11
2022-09-12T21:30:53.960Z,12.09
2022-09-12T21:33:21.674Z,12.04
2022-09-12T21:35:49.245Z,11.99
2022-09-12T21:38:16.935Z,11.92
2022-09-12T21:40:43.696Z,11.86
2022-09-12T21:43:12.796Z,11.81
2022-09-12T21:45:40.054Z,11.82
2022-09-12T21:48:07.081Z,11.78
2022-09-12T21:50:33.752Z,11.75
2022-09-12T21:53:00.359Z,11.70
2022-09-12T21:55:27.523Z,11.64
2022-09-12T21:57:55.683Z,11.62
2022-09-12T22:00:23.279Z,11.58
2022-09-12T22:02:50.091Z,11.52
2022-09-12T22:05:17.428Z,11.49
2022-09-12T22:07:44.160Z,11.43
2022-09-12T22:10:10.843Z,11.39
2022-09-12T22:12:37.559Z,11.33
2022-09-12T22:15:22.969Z,11.29
2022-09-12T22:17:51.539Z,11.27
2022-09-12T22:20:18.298Z,11.24
2022-09-12T22:23:03.637Z,11.17
2022-09-12T22:25:30.751Z,11.08
2022-09-12T22:27:58.317Z,11.00
2022-09-12T22:30:27.338Z,10.93
2022-09-12T22:32:54.042Z,10.89
2022-09-12T22:35:21.153Z,10.85
2022-09-12T22:37:48.098Z,10.83
2022-09-12T22:40:15.622Z,10.81
2022-09-12T22:42:42.697Z,10.75
2022-09-12T22:45:09.739Z,10.73
2022-09-12T22:47:36.443Z,10.71
2022-09-12T22:50:03.222Z,10.71
2022-09-12T22:52:29.904Z,10.70
2022-09-12T22:54:57.309Z,10.69
2022-09-12T22:57:24.048Z,10.67
2022-09-12T22:59:50.893Z,10.63
2022-09-12T23:02:17.498Z,10.59
2022-09-12T23:04:44.332Z,10.56
2022-09-12T23:07:11.136Z,10.51
2022-09-12T23:09:37.799Z,10.49
2022-09-12T23:12:04.845Z,10.46
2022-09-12T23:14:31.455Z,10.40
2022-09-12T23:16:58.113Z,10.36
2022-09-12T23:19:24.907Z,10.37
2022-09-12T23:21:52.161Z,10.40
2022-09-12T23:24:18.808Z,10.37
2022-09-12T23:26:46.133Z,10.34
2022-09-12T23:29:12.744Z,10.36
2022-09-12T23:31:39.684Z,10.41
2022-09-12T23:34:06.503Z,10.44
2022-09-12T23:36:34.405Z,10.49
2022-09-12T23:39:01.447Z,10.51
2022-09-12T23:41:29.722Z,10.50
2022-09-12T23:43:56.613Z,10.49
2022-09-12T23:46:23.297Z,10.49
2022-09-12T23:48:50.256Z,10.51
2022-09-12T23:51:16.992Z,10.52
2022-09-12T23:53:43.628Z,10.50
2022-09-12T23:56:12.770Z,10.45
2022-09-12T23:58:39.541Z,10.40
